Masterton, New Zealand
Current Conditions -  °F | °C
As of 5:00 PM on Tuesday 21 Oct 2014 (Local Time) from NZWN Reporting Station
Broken Clouds Broken Clouds  
Wind Chill: 59°   Ceiling: 5500
Heat Index: 59°   Visibility: 6mi
Dew Point: 45°   Wind: 7mph
Humidity: 59%   Direction: 200°SSW
Pressure: 30.09"   Gusts: NA
Location:  40.96°S, 175.66°E
Report Text: NZWN 210500Z AUTO 20006KT 9999 BKN055/// 15/07 Q1019 NOSIG
Loading
Personal Weather Stations






























Interactive Weather Map
Tropical Storm Tracking
New forecast layout! Learn more

10-Day Weather Forecast

Advertisements
Track Severe Weather on mobile